createdAt,value
2023-05-25T00:03:12.284Z,9.66
2023-05-25T00:08:15.333Z,9.64
2023-05-25T00:13:19.663Z,9.56
2023-05-25T00:18:22.457Z,9.51
2023-05-25T00:23:25.329Z,9.51
2023-05-25T00:28:29.561Z,9.54
2023-05-25T00:33:32.805Z,9.55
2023-05-25T00:38:35.664Z,9.37
2023-05-25T00:43:39.884Z,9.23
2023-05-25T00:48:43.616Z,9.14
2023-05-25T00:53:46.507Z,9.23
2023-05-25T00:58:54.938Z,9.19
2023-05-25T01:04:00.506Z,9.02
2023-05-25T01:09:05.689Z,8.84
2023-05-25T01:14:10.348Z,8.26
2023-05-25T01:19:13.335Z,7.83
2023-05-25T01:24:27.675Z,8.17
2023-05-25T01:29:33.760Z,8.33
2023-05-25T01:34:37.292Z,8.48
2023-05-25T01:39:41.611Z,8.42
2023-05-25T01:44:46.033Z,8.43
2023-05-25T01:49:57.329Z,8.42
2023-05-25T01:55:06.597Z,8.38
2023-05-25T02:00:13.156Z,8.26
2023-05-25T02:05:21.330Z,8.28
2023-05-25T02:10:25.797Z,8.37
2023-05-25T02:15:34.522Z,8.26
2023-05-25T02:20:38.738Z,8.29
2023-05-25T02:25:43.902Z,8.24
2023-05-25T02:30:47.017Z,8.26
2023-05-25T02:35:50.508Z,8.32
2023-05-25T02:40:54.927Z,8.30
2023-05-25T02:46:00.121Z,8.23
2023-05-25T02:51:04.001Z,8.14
2023-05-25T02:56:10.424Z,8.06
2023-05-25T03:01:18.740Z,8.01
2023-05-25T03:06:27.424Z,8.00
2023-05-25T03:11:35.266Z,8.07
2023-05-25T03:16:40.472Z,8.04
2023-05-25T03:21:43.949Z,8.00
2023-05-25T03:26:48.542Z,7.87
2023-05-25T03:31:52.750Z,7.93
2023-05-25T03:36:58.972Z,7.95
2023-05-25T03:42:03.851Z,8.02
2023-05-25T03:47:07.478Z,8.18
2023-05-25T03:52:10.427Z,7.93
2023-05-25T03:57:14.820Z,8.00
2023-05-25T04:02:18.055Z,8.13
2023-05-25T04:07:21.254Z,8.39
2023-05-25T04:12:25.510Z,8.53
2023-05-25T04:17:28.937Z,8.69
2023-05-25T04:22:33.558Z,8.70
2023-05-25T04:27:38.561Z,8.75
2023-05-25T04:32:47.226Z,9.05
2023-05-25T04:38:05.199Z,9.01
2023-05-25T04:43:11.360Z,9.27
2023-05-25T04:48:14.425Z,9.35
2023-05-25T04:53:17.740Z,9.11
2023-05-25T04:58:22.167Z,9.26
2023-05-25T05:03:25.269Z,9.06
2023-05-25T05:08:28.399Z,9.20
2023-05-25T05:13:33.084Z,9.11
2023-05-25T05:18:36.441Z,9.35
2023-05-25T05:23:39.368Z,9.41
2023-05-25T05:28:43.761Z,9.43
2023-05-25T05:33:47.595Z,9.53
2023-05-25T05:38:52.146Z,9.76
2023-05-25T05:43:56.520Z,9.89
2023-05-25T05:48:59.480Z,10.16
2023-05-25T05:54:02.476Z,10.31
2023-05-25T05:59:06.846Z,10.12
2023-05-25T06:04:09.964Z,10.23
2023-05-25T06:09:13.706Z,10.55
2023-05-25T06:14:18.115Z,10.91
2023-05-25T06:19:21.198Z,11.15
2023-05-25T06:24:24.243Z,11.21
2023-05-25T06:29:28.478Z,11.25
2023-05-25T06:34:31.506Z,11.38
2023-05-25T06:39:34.647Z,11.42
2023-05-25T06:44:39.790Z,11.47
2023-05-25T06:49:44.777Z,11.42
2023-05-25T06:54:47.759Z,11.58
2023-05-25T06:59:52.303Z,11.67
2023-05-25T07:04:55.394Z,11.76
2023-05-25T07:09:58.284Z,11.75
2023-05-25T07:15:02.477Z,11.72
2023-05-25T07:20:06.240Z,12.08
2023-05-25T07:25:10.465Z,12.32
2023-05-25T07:30:15.462Z,12.34
2023-05-25T07:35:18.293Z,12.67
2023-05-25T07:40:21.126Z,12.42
2023-05-25T07:45:25.383Z,12.56
2023-05-25T07:50:29.470Z,12.59
2023-05-25T07:55:34.106Z,12.79
2023-05-25T08:00:38.290Z,12.96
2023-05-25T08:05:41.160Z,13.04
2023-05-25T08:10:45.537Z,13.36
2023-05-25T08:15:50.865Z,13.79
2023-05-25T08:20:53.680Z,14.01
2023-05-25T08:25:56.487Z,13.89
2023-05-25T08:31:01.325Z,14.20
2023-05-25T08:36:04.293Z,14.22
2023-05-25T08:41:08.145Z,14.23
2023-05-25T08:46:12.886Z,14.38
2023-05-25T08:51:18.691Z,14.62
2023-05-25T08:56:21.704Z,14.42
2023-05-25T09:01:29.805Z,14.07
2023-05-25T09:06:33.956Z,14.32
2023-05-25T09:11:40.500Z,14.81
2023-05-25T09:16:47.063Z,15.36
2023-05-25T09:21:52.957Z,15.30
2023-05-25T09:27:01.070Z,15.59
2023-05-25T09:32:06.995Z,16.76
2023-05-25T09:37:13.556Z,16.62
2023-05-25T09:42:16.469Z,15.52
2023-05-25T09:47:21.042Z,15.36
2023-05-25T09:52:24.497Z,15.39
2023-05-25T09:57:29.049Z,16.00
2023-05-25T10:02:33.540Z,16.20
2023-05-25T10:07:38.336Z,16.43
2023-05-25T10:12:42.800Z,17.53
2023-05-25T10:17:53.701Z,16.91
2023-05-25T10:23:02.268Z,16.72
2023-05-25T10:28:12.498Z,16.40
2023-05-25T10:33:17.487Z,16.27
2023-05-25T10:38:20.991Z,16.48
2023-05-25T10:43:24.539Z,17.34
2023-05-25T10:48:38.391Z,17.78
2023-05-25T10:53:45.802Z,17.89
2023-05-25T10:58:48.845Z,17.60
2023-05-25T11:04:17.304Z,17.10
2023-05-25T11:09:26.822Z,16.80
2023-05-25T11:14:31.061Z,16.18
2023-05-25T11:19:42.958Z,16.46
2023-05-25T11:24:46.229Z,16.55
2023-05-25T11:29:51.700Z,16.30
2023-05-25T11:34:58.121Z,16.15
2023-05-25T11:40:01.012Z,16.33
2023-05-25T11:45:04.058Z,16.67
2023-05-25T11:50:09.227Z,17.01
2023-05-25T11:55:14.401Z,17.32
2023-05-25T12:00:27.850Z,17.86
2023-05-25T12:05:39.676Z,16.54
2023-05-25T12:10:52.411Z,16.84
2023-05-25T12:15:57.526Z,17.30
2023-05-25T12:21:01.893Z,17.47
2023-05-25T12:26:12.283Z,18.24
2023-05-25T12:31:22.935Z,18.60
2023-05-25T12:36:48.873Z,18.88
2023-05-25T12:41:54.879Z,19.29
2023-05-25T12:47:10.848Z,19.22
2023-05-25T12:52:34.756Z,20.48
2023-05-25T12:57:37.651Z,20.02
2023-05-25T13:02:43.802Z,19.76
2023-05-25T13:07:48.221Z,20.35
2023-05-25T13:12:53.787Z,20.67
2023-05-25T13:17:58.989Z,19.67
2023-05-25T13:23:03.515Z,19.44
2023-05-25T13:28:06.666Z,19.07
2023-05-25T13:33:09.698Z,19.02
2023-05-25T13:38:16.611Z,19.17
2023-05-25T13:43:20.260Z,18.57
2023-05-25T13:48:23.063Z,18.24
2023-05-25T13:53:27.740Z,18.05
2023-05-25T13:58:30.756Z,18.45
2023-05-25T14:03:33.980Z,18.67
2023-05-25T14:08:38.198Z,18.35
2023-05-25T14:13:41.131Z,18.09
2023-05-25T14:18:44.008Z,18.57
2023-05-25T14:23:48.247Z,19.49
2023-05-25T14:28:51.715Z,21.40
2023-05-25T14:33:54.471Z,22.52
2023-05-25T14:38:58.605Z,23.53
2023-05-25T14:44:01.419Z,23.03
2023-05-25T14:49:04.293Z,21.72
2023-05-25T14:54:09.030Z,22.05
2023-05-25T14:59:11.957Z,22.24
2023-05-25T15:04:14.941Z,21.62
2023-05-25T15:09:19.534Z,22.50
2023-05-25T15:14:22.354Z,23.06
2023-05-25T15:19:25.392Z,23.23
2023-05-25T15:24:29.564Z,23.15
2023-05-25T15:29:32.328Z,23.17
2023-05-25T15:34:36.179Z,22.55
2023-05-25T15:39:40.411Z,23.06
2023-05-25T15:44:43.286Z,23.08
2023-05-25T15:49:46.061Z,23.16
2023-05-25T15:54:50.316Z,23.04
2023-05-25T15:59:53.168Z,23.61
2023-05-25T16:04:56.006Z,23.85
2023-05-25T16:10:00.237Z,24.06
2023-05-25T16:15:03.078Z,24.20
2023-05-25T16:20:07.856Z,24.17
2023-05-25T16:25:12.186Z,23.77
2023-05-25T16:30:15.079Z,22.22
2023-05-25T16:35:17.954Z,21.75
2023-05-25T16:40:22.139Z,24.46
2023-05-25T16:45:25.008Z,27.17
2023-05-25T16:50:27.860Z,28.43
2023-05-25T16:55:33.504Z,28.73
2023-05-25T17:00:36.359Z,30.60
2023-05-25T17:05:39.252Z,31.96
2023-05-25T17:10:48.846Z,30.47
2023-05-25T17:15:53.379Z,30.42
2023-05-25T17:20:57.744Z,25.68
2023-05-25T17:26:01.928Z,26.18
2023-05-25T17:31:04.803Z,25.72
2023-05-25T17:36:07.836Z,22.23
2023-05-25T17:41:12.044Z,23.10
2023-05-25T17:46:14.940Z,24.54
2023-05-25T17:51:18.560Z,23.21
2023-05-25T17:56:23.071Z,20.45
2023-05-25T18:01:25.971Z,19.33
2023-05-25T18:06:29.399Z,18.74
2023-05-25T18:11:36.086Z,17.98
2023-05-25T18:16:39.905Z,17.36
2023-05-25T18:21:42.803Z,17.11
2023-05-25T18:26:47.378Z,16.77
2023-05-25T18:31:50.338Z,16.57
2023-05-25T18:36:53.185Z,16.40
2023-05-25T18:41:57.390Z,16.13
2023-05-25T18:47:00.277Z,15.82
2023-05-25T18:52:04.308Z,15.63
2023-05-25T18:57:08.684Z,15.44
2023-05-25T19:02:11.554Z,15.24
2023-05-25T19:07:14.518Z,14.91
2023-05-25T19:12:18.833Z,14.77
2023-05-25T19:17:22.084Z,14.65
2023-05-25T19:22:24.952Z,14.55
2023-05-25T19:27:29.717Z,14.33
2023-05-25T19:32:32.670Z,14.12
2023-05-25T19:37:37.643Z,13.84
2023-05-25T19:42:41.893Z,13.83
2023-05-25T19:47:44.727Z,13.71
2023-05-25T19:52:47.819Z,13.50
2023-05-25T19:57:52.183Z,13.27
2023-05-25T20:02:55.273Z,13.20
2023-05-25T20:07:58.396Z,13.08
2023-05-25T20:13:02.600Z,12.95
2023-05-25T20:18:05.676Z,12.84
2023-05-25T20:23:08.539Z,12.66
2023-05-25T20:28:12.824Z,12.53
2023-05-25T20:33:15.704Z,12.37
2023-05-25T20:38:18.608Z,12.23
2023-05-25T20:43:22.779Z,12.27
2023-05-25T20:48:25.619Z,12.19
2023-05-25T20:53:28.613Z,12.03
2023-05-25T20:58:32.815Z,11.90
2023-05-25T21:03:36.050Z,11.61
2023-05-25T21:08:38.960Z,11.69
2023-05-25T21:13:43.202Z,11.65
2023-05-25T21:18:46.019Z,11.39
2023-05-25T21:23:48.941Z,11.42
2023-05-25T21:28:53.182Z,11.39
2023-05-25T21:33:56.046Z,11.32
2023-05-25T21:38:58.906Z,11.26
2023-05-25T21:44:03.336Z,11.14
2023-05-25T21:49:06.177Z,11.06
2023-05-25T21:54:09.004Z,10.97
2023-05-25T21:59:13.204Z,10.76
2023-05-25T22:04:16.078Z,10.62
2023-05-25T22:09:18.966Z,10.46
2023-05-25T22:14:23.159Z,10.37
2023-05-25T22:19:26.056Z,10.26
2023-05-25T22:24:28.875Z,10.24
2023-05-25T22:29:33.030Z,10.20
2023-05-25T22:34:36.197Z,10.07
2023-05-25T22:39:38.999Z,10.08
2023-05-25T22:44:43.164Z,10.06
2023-05-25T22:49:45.946Z,9.94
2023-05-25T22:54:48.788Z,9.93
2023-05-25T22:59:53.154Z,9.85
2023-05-25T23:04:56.018Z,9.86
2023-05-25T23:09:58.927Z,9.80
2023-05-25T23:15:03.157Z,9.65
2023-05-25T23:20:07.754Z,9.62
2023-05-25T23:25:11.096Z,9.59
2023-05-25T23:30:15.527Z,9.57
2023-05-25T23:35:18.517Z,9.41
2023-05-25T23:40:21.356Z,9.39
2023-05-25T23:45:25.846Z,9.35
2023-05-25T23:50:28.707Z,9.32
2023-05-25T23:55:31.554Z,9.26
